createdAt,value
2017-06-11T00:00:11.442Z,17.10
2017-06-11T00:02:39.012Z,17.10
2017-06-11T00:05:06.619Z,17.20
2017-06-11T00:07:34.224Z,17.20
2017-06-11T00:10:01.803Z,17.30
2017-06-11T00:12:30.337Z,17.40
2017-06-11T00:14:57.911Z,17.40
2017-06-11T00:17:25.497Z,17.50
2017-06-11T00:19:53.068Z,17.60
2017-06-11T00:22:21.426Z,17.60
2017-06-11T00:24:49.054Z,17.60
2017-06-11T00:27:16.633Z,17.60
2017-06-11T00:29:44.306Z,17.60
2017-06-11T00:32:11.939Z,17.50
2017-06-11T00:34:39.530Z,17.40
2017-06-11T00:37:07.146Z,17.30
2017-06-11T00:39:34.723Z,17.30
2017-06-11T00:42:02.313Z,17.30
2017-06-11T00:44:30.049Z,17.30
2017-06-11T00:46:58.020Z,17.30
2017-06-11T00:49:25.579Z,17.30
2017-06-11T00:51:53.183Z,17.30
2017-06-11T00:54:20.765Z,17.30
2017-06-11T00:56:48.330Z,17.20
2017-06-11T00:59:16.671Z,17.20
2017-06-11T01:01:44.259Z,17.20
2017-06-11T01:04:12.634Z,17.10
2017-06-11T01:06:40.199Z,17.10
2017-06-11T01:09:08.558Z,17.10
2017-06-11T01:11:36.132Z,17.10
2017-06-11T01:14:03.709Z,17.10
2017-06-11T01:16:31.282Z,17.00
2017-06-11T01:18:58.857Z,17.10
2017-06-11T01:21:26.447Z,17.00
2017-06-11T01:23:54.108Z,17.00
2017-06-11T01:26:21.670Z,17.00
2017-06-11T01:28:49.229Z,17.00
2017-06-11T01:31:16.858Z,17.00
2017-06-11T01:33:44.438Z,17.00
2017-06-11T01:36:12.030Z,17.00
2017-06-11T01:38:39.614Z,17.00
2017-06-11T01:41:08.171Z,17.00
2017-06-11T01:43:35.856Z,17.00
2017-06-11T01:46:03.847Z,17.00
2017-06-11T01:48:31.406Z,17.00
2017-06-11T01:50:59.778Z,17.00
2017-06-11T01:53:27.339Z,17.00
2017-06-11T01:55:55.669Z,17.00
2017-06-11T01:58:23.311Z,17.00
2017-06-11T02:00:50.900Z,17.00
2017-06-11T02:03:18.449Z,17.00
2017-06-11T02:05:46.034Z,16.90
2017-06-11T02:08:13.630Z,16.90
2017-06-11T02:10:41.194Z,17.00
2017-06-11T02:13:08.809Z,17.10
2017-06-11T02:15:38.242Z,17.10
2017-06-11T02:18:05.826Z,17.00
2017-06-11T02:20:33.390Z,17.00
2017-06-11T02:23:01.085Z,17.00
2017-06-11T02:25:28.653Z,17.00
2017-06-11T02:27:56.216Z,17.00
2017-06-11T02:30:23.940Z,17.00
2017-06-11T02:32:51.498Z,16.90
2017-06-11T02:35:19.054Z,16.90
2017-06-11T02:37:46.634Z,17.00
2017-06-11T02:40:14.236Z,16.90
2017-06-11T02:42:41.806Z,16.80
2017-06-11T02:45:10.405Z,16.90
2017-06-11T02:47:38.754Z,16.90
2017-06-11T02:50:06.344Z,16.90
2017-06-11T02:52:33.919Z,16.80
2017-06-11T02:55:02.274Z,16.90
2017-06-11T02:57:29.861Z,16.90
2017-06-11T02:59:58.193Z,16.80
2017-06-11T03:02:34.477Z,16.80
2017-06-11T03:05:02.091Z,16.80
2017-06-11T03:07:29.651Z,16.80
2017-06-11T03:09:57.249Z,16.80
2017-06-11T03:12:24.809Z,16.90
2017-06-11T03:14:52.377Z,17.00
2017-06-11T03:17:19.972Z,17.00
2017-06-11T03:19:48.297Z,17.00
2017-06-11T03:22:15.870Z,17.00
2017-06-11T03:24:43.455Z,17.00
2017-06-11T03:27:11.018Z,17.00
2017-06-11T03:29:39.359Z,17.10
2017-06-11T03:32:06.944Z,17.00
2017-06-11T03:34:34.502Z,17.00
2017-06-11T03:37:02.326Z,17.00
2017-06-11T03:39:29.892Z,17.00
2017-06-11T03:41:57.525Z,17.10
2017-06-11T03:44:25.146Z,17.20
2017-06-11T03:46:52.746Z,17.10
2017-06-11T03:49:20.570Z,17.10
2017-06-11T03:51:48.167Z,17.10
2017-06-11T03:54:16.488Z,17.10
2017-06-11T03:56:44.050Z,17.10
2017-06-11T03:59:11.617Z,17.20
2017-06-11T04:01:39.172Z,17.20
2017-06-11T04:04:06.776Z,17.20
2017-06-11T04:06:34.393Z,17.30
2017-06-11T04:09:01.982Z,17.40
2017-06-11T04:11:29.550Z,17.40
2017-06-11T04:13:57.142Z,17.90
2017-06-11T04:16:24.702Z,19.20
2017-06-11T04:18:52.286Z,20.50
2017-06-11T04:21:19.866Z,21.60
2017-06-11T04:23:47.433Z,22.30
2017-06-11T04:26:15.029Z,22.80
2017-06-11T04:28:43.366Z,23.60
2017-06-11T04:31:10.946Z,23.60
2017-06-11T04:33:38.511Z,24.30
2017-06-11T04:36:06.065Z,25.00
2017-06-11T04:38:33.695Z,25.60
2017-06-11T04:41:01.246Z,26.20
2017-06-11T04:43:28.835Z,26.40
2017-06-11T04:45:56.453Z,26.80
2017-06-11T04:48:24.171Z,26.60
2017-06-11T04:50:51.729Z,25.50
2017-06-11T04:53:19.321Z,24.50
2017-06-11T04:55:46.926Z,23.70
2017-06-11T04:58:14.510Z,23.20
2017-06-11T05:00:42.090Z,23.80
2017-06-11T05:03:09.780Z,23.70
2017-06-11T05:05:38.166Z,23.30
2017-06-11T05:08:05.735Z,23.30
2017-06-11T05:10:33.294Z,23.20
2017-06-11T05:13:00.856Z,22.80
2017-06-11T05:15:28.425Z,22.60
2017-06-11T05:17:55.994Z,22.40
2017-06-11T05:20:23.558Z,22.30
2017-06-11T05:22:51.137Z,22.40
2017-06-11T05:25:18.746Z,22.30
2017-06-11T05:27:47.103Z,22.20
2017-06-11T05:30:14.673Z,22.20
2017-06-11T05:32:43.002Z,22.20
2017-06-11T05:35:10.569Z,22.20
2017-06-11T05:37:38.134Z,22.20
2017-06-11T05:40:05.939Z,22.20
2017-06-11T05:42:33.516Z,22.20
2017-06-11T05:45:01.089Z,22.10
2017-06-11T05:47:28.658Z,22.00
2017-06-11T05:49:56.243Z,22.10
2017-06-11T05:52:23.847Z,22.30
2017-06-11T05:54:52.261Z,22.50
2017-06-11T05:57:19.843Z,22.50
2017-06-11T05:59:47.446Z,22.60
2017-06-11T06:02:15.017Z,22.70
2017-06-11T06:04:43.372Z,22.60
2017-06-11T06:07:10.930Z,22.60
2017-06-11T06:09:38.500Z,22.50
2017-06-11T06:12:06.134Z,22.60
2017-06-11T06:14:33.705Z,22.60
2017-06-11T06:17:01.306Z,22.40
2017-06-11T06:19:28.858Z,22.40
2017-06-11T06:21:57.236Z,22.40
2017-06-11T06:24:24.815Z,22.30
2017-06-11T06:26:52.507Z,22.40
2017-06-11T06:29:20.060Z,22.40
2017-06-11T06:31:47.666Z,22.50
2017-06-11T06:34:15.225Z,22.50
2017-06-11T06:36:42.786Z,22.60
2017-06-11T06:39:10.360Z,22.60
2017-06-11T06:41:37.989Z,22.60
2017-06-11T06:44:05.590Z,22.60
2017-06-11T06:46:33.911Z,22.40
2017-06-11T06:49:01.470Z,22.40
2017-06-11T06:51:29.061Z,22.50
2017-06-11T06:53:56.621Z,22.60
2017-06-11T06:56:24.210Z,22.70
2017-06-11T06:58:51.780Z,22.80
2017-06-11T07:01:19.399Z,23.10
2017-06-11T07:03:46.978Z,23.30
2017-06-11T07:06:14.601Z,23.50
2017-06-11T07:08:42.177Z,23.50
2017-06-11T07:11:09.748Z,23.70
2017-06-11T07:13:37.592Z,23.80
2017-06-11T07:16:05.152Z,23.90
2017-06-11T07:18:32.710Z,24.00
2017-06-11T07:21:00.304Z,24.10
2017-06-11T07:23:27.870Z,24.50
2017-06-11T07:25:55.466Z,24.80
2017-06-11T07:28:23.014Z,25.00
2017-06-11T07:30:50.607Z,25.30
2017-06-11T07:33:18.167Z,25.30
2017-06-11T07:35:45.884Z,25.30
2017-06-11T07:38:13.476Z,25.50
2017-06-11T07:40:41.844Z,27.00
2017-06-11T07:43:10.207Z,27.20
2017-06-11T07:45:37.790Z,27.10
2017-06-11T07:48:06.138Z,27.60
2017-06-11T07:50:33.697Z,27.60
2017-06-11T07:53:02.081Z,28.00
2017-06-11T07:55:29.674Z,28.30
2017-06-11T07:57:57.399Z,29.50
2017-06-11T08:00:24.960Z,30.30
2017-06-11T08:02:52.646Z,31.10
2017-06-11T08:05:20.206Z,32.00
2017-06-11T08:07:48.566Z,32.30
2017-06-11T08:10:16.122Z,32.30
2017-06-11T08:12:43.682Z,32.20
2017-06-11T08:15:11.292Z,32.30
2017-06-11T08:17:38.862Z,33.60
2017-06-11T08:20:06.483Z,33.90
2017-06-11T08:22:34.068Z,34.80
2017-06-11T08:25:02.014Z,35.40
2017-06-11T08:27:29.571Z,35.40
2017-06-11T08:29:57.145Z,36.40
2017-06-11T08:32:24.713Z,37.30
2017-06-11T08:34:52.289Z,37.00
2017-06-11T08:37:19.886Z,37.40
2017-06-11T08:39:47.449Z,38.10
2017-06-11T08:42:15.091Z,37.70
2017-06-11T08:44:42.637Z,38.10
2017-06-11T08:47:10.253Z,38.10
2017-06-11T08:49:37.841Z,38.30
2017-06-11T08:52:05.401Z,37.90
2017-06-11T08:54:33.003Z,37.60
2017-06-11T08:57:00.583Z,37.50
2017-06-11T08:59:28.228Z,37.00
2017-06-11T09:01:55.924Z,36.60
2017-06-11T09:04:23.546Z,36.40
2017-06-11T09:06:51.135Z,36.60
2017-06-11T09:09:18.698Z,37.00
2017-06-11T09:11:46.286Z,37.00
2017-06-11T09:14:14.646Z,35.40
2017-06-11T09:16:42.330Z,35.40
2017-06-11T09:19:10.706Z,35.50
2017-06-11T09:21:38.268Z,35.50
2017-06-11T09:24:06.629Z,36.00
2017-06-11T09:26:34.199Z,36.00
2017-06-11T09:29:01.758Z,35.70
2017-06-11T09:31:29.366Z,34.10
2017-06-11T09:33:56.937Z,33.80
2017-06-11T09:36:24.515Z,34.00
2017-06-11T09:38:52.149Z,34.20
2017-06-11T09:41:19.711Z,34.50
2017-06-11T09:43:47.293Z,34.70
2017-06-11T09:46:14.882Z,35.70
2017-06-11T09:48:42.446Z,36.00
2017-06-11T09:51:10.751Z,37.00
2017-06-11T09:53:38.469Z,37.60
2017-06-11T09:56:06.058Z,36.70
2017-06-11T09:58:33.660Z,36.00
2017-06-11T10:01:01.215Z,36.10
2017-06-11T10:03:28.806Z,35.90
2017-06-11T10:05:56.374Z,36.20
2017-06-11T10:08:23.958Z,36.10
2017-06-11T10:10:51.550Z,34.90
2017-06-11T10:13:19.107Z,35.60
2017-06-11T10:15:46.668Z,35.50
2017-06-11T10:18:14.242Z,35.80
2017-06-11T10:20:41.838Z,36.10
2017-06-11T10:23:09.426Z,35.60
2017-06-11T10:25:36.986Z,35.40
2017-06-11T10:28:04.574Z,35.30
2017-06-11T10:30:32.210Z,35.90
2017-06-11T10:32:59.786Z,36.20
2017-06-11T10:35:28.106Z,36.30
2017-06-11T10:37:55.903Z,36.30
2017-06-11T10:40:23.463Z,36.20
2017-06-11T10:42:51.039Z,36.30
2017-06-11T10:45:18.647Z,36.40
2017-06-11T10:47:46.211Z,36.40
2017-06-11T10:50:13.772Z,36.20
2017-06-11T10:52:41.372Z,36.00
2017-06-11T10:55:09.010Z,35.30
2017-06-11T10:57:36.595Z,35.00
2017-06-11T11:00:04.309Z,35.60
2017-06-11T11:02:31.873Z,35.70
2017-06-11T11:04:59.474Z,35.70
2017-06-11T11:07:27.031Z,35.90
2017-06-11T11:09:54.613Z,35.70
2017-06-11T11:12:22.177Z,34.90
2017-06-11T11:14:49.797Z,34.80
2017-06-11T11:17:17.415Z,35.00
2017-06-11T11:19:45.729Z,35.40
2017-06-11T11:22:13.319Z,35.40
2017-06-11T11:24:40.903Z,35.20
2017-06-11T11:27:08.469Z,34.70
2017-06-11T11:29:36.090Z,33.90
2017-06-11T11:32:03.674Z,33.90
2017-06-11T11:34:31.236Z,33.80
2017-06-11T11:36:58.821Z,34.10
2017-06-11T11:39:27.223Z,33.50
2017-06-11T11:41:54.778Z,33.60
2017-06-11T11:44:22.419Z,33.40
2017-06-11T11:46:49.985Z,33.50
2017-06-11T11:49:18.419Z,33.00
2017-06-11T11:51:45.993Z,33.00
2017-06-11T11:54:13.610Z,32.80
2017-06-11T11:56:41.206Z,32.40
2017-06-11T11:59:08.762Z,32.30
2017-06-11T12:01:36.343Z,31.90
2017-06-11T12:04:04.101Z,31.50
2017-06-11T12:06:31.668Z,31.50
2017-06-11T12:08:59.306Z,31.30
2017-06-11T12:11:26.892Z,31.50
2017-06-11T12:13:54.450Z,31.70
2017-06-11T12:16:22.047Z,31.80
2017-06-11T12:18:50.568Z,32.00
2017-06-11T12:21:18.206Z,32.00
2017-06-11T12:23:45.795Z,32.10
2017-06-11T12:26:13.369Z,32.00
2017-06-11T12:28:40.936Z,31.90
2017-06-11T12:31:08.505Z,32.20
2017-06-11T12:33:36.065Z,32.30
2017-06-11T12:36:03.731Z,32.00
2017-06-11T12:38:31.286Z,32.30
2017-06-11T12:40:58.850Z,32.00
2017-06-11T12:43:26.433Z,32.00
2017-06-11T12:45:54.785Z,32.00
2017-06-11T12:48:22.352Z,32.00
2017-06-11T12:50:50.231Z,32.00
2017-06-11T12:53:17.878Z,32.20
2017-06-11T12:55:45.464Z,32.00
2017-06-11T12:58:13.793Z,31.70
2017-06-11T13:00:41.392Z,31.70
2017-06-11T13:03:08.973Z,31.70
2017-06-11T13:05:36.531Z,31.90
2017-06-11T13:08:04.870Z,31.80
2017-06-11T13:10:32.718Z,31.80
2017-06-11T13:13:00.307Z,31.80
2017-06-11T13:15:27.879Z,31.80
2017-06-11T13:17:55.483Z,31.80
2017-06-11T13:20:23.087Z,31.20
2017-06-11T13:22:50.646Z,31.30
2017-06-11T13:25:18.221Z,31.00
2017-06-11T13:27:45.807Z,30.90
2017-06-11T13:30:14.142Z,30.60
2017-06-11T13:32:41.797Z,30.60
2017-06-11T13:35:09.357Z,30.60
2017-06-11T13:37:36.929Z,30.90
2017-06-11T13:40:04.514Z,31.10
2017-06-11T13:42:32.094Z,31.10
2017-06-11T13:45:00.441Z,30.90
2017-06-11T13:47:28.022Z,30.90
2017-06-11T13:49:57.274Z,30.70
2017-06-11T13:52:24.868Z,30.70
2017-06-11T13:54:52.427Z,30.90
2017-06-11T13:57:20.017Z,31.00
2017-06-11T13:59:48.410Z,31.40
2017-06-11T14:02:15.965Z,31.40
2017-06-11T14:04:44.287Z,31.70
2017-06-11T14:07:11.875Z,31.60
2017-06-11T14:09:39.457Z,31.80
2017-06-11T14:12:08.011Z,32.00
2017-06-11T14:14:35.572Z,32.00
2017-06-11T14:17:03.159Z,31.80
2017-06-11T14:19:31.518Z,31.60
2017-06-11T14:21:59.088Z,31.60
2017-06-11T14:24:26.650Z,31.40
2017-06-11T14:26:54.245Z,31.40
2017-06-11T14:29:21.853Z,31.40
2017-06-11T14:31:49.410Z,31.60
2017-06-11T14:34:17.006Z,31.60
2017-06-11T14:36:44.556Z,31.70
2017-06-11T14:39:12.169Z,31.60
2017-06-11T14:41:39.722Z,31.20
2017-06-11T14:44:08.040Z,30.70
2017-06-11T14:46:35.654Z,30.20
2017-06-11T14:49:03.234Z,30.00
2017-06-11T14:51:30.841Z,29.80
2017-06-11T14:53:58.427Z,29.60
2017-06-11T14:56:26.776Z,29.20
2017-06-11T14:58:54.341Z,29.20
2017-06-11T15:01:21.930Z,28.90
2017-06-11T15:03:49.511Z,28.80
2017-06-11T15:06:17.105Z,28.80
2017-06-11T15:08:44.659Z,28.70
2017-06-11T15:11:12.254Z,28.80
2017-06-11T15:13:40.607Z,28.80
2017-06-11T15:16:08.190Z,28.80
2017-06-11T15:18:36.031Z,28.80
2017-06-11T15:21:03.577Z,28.80
2017-06-11T15:23:31.170Z,28.90
2017-06-11T15:25:58.734Z,29.00
2017-06-11T15:28:26.346Z,28.90
2017-06-11T15:30:53.937Z,28.90
2017-06-11T15:33:21.535Z,28.80
2017-06-11T15:35:49.902Z,28.80
2017-06-11T15:38:17.506Z,28.80
2017-06-11T15:40:45.082Z,28.80
2017-06-11T15:43:12.706Z,28.80
2017-06-11T15:45:40.309Z,28.60
2017-06-11T15:48:07.896Z,28.60
2017-06-11T15:50:36.281Z,28.60
2017-06-11T15:53:03.880Z,28.70
2017-06-11T15:55:31.444Z,28.70
2017-06-11T15:57:59.046Z,28.80
2017-06-11T16:00:26.893Z,28.70
2017-06-11T16:02:54.453Z,28.70
2017-06-11T16:05:22.054Z,28.80
2017-06-11T16:07:49.598Z,28.90
2017-06-11T16:10:17.186Z,29.10
2017-06-11T16:12:45.819Z,29.30
2017-06-11T16:15:13.401Z,29.30
2017-06-11T16:17:40.963Z,29.40
2017-06-11T16:20:08.546Z,29.40
2017-06-11T16:22:36.162Z,29.40
2017-06-11T16:25:03.729Z,29.30
2017-06-11T16:27:31.307Z,29.20
2017-06-11T16:29:58.901Z,29.20
2017-06-11T16:32:27.231Z,29.20
2017-06-11T16:34:55.538Z,29.20
2017-06-11T16:37:23.145Z,29.30
2017-06-11T16:39:50.709Z,29.50
2017-06-11T16:42:18.294Z,29.60
2017-06-11T16:44:46.062Z,29.50
2017-06-11T16:47:13.651Z,29.60
2017-06-11T16:49:41.315Z,29.50
2017-06-11T16:52:08.877Z,29.40
2017-06-11T16:54:36.697Z,29.10
2017-06-11T16:57:04.297Z,29.00
2017-06-11T16:59:31.894Z,28.90
2017-06-11T17:02:00.223Z,28.50
2017-06-11T17:04:28.057Z,28.50
2017-06-11T17:06:55.623Z,28.50
2017-06-11T17:09:23.437Z,28.40
2017-06-11T17:11:51.019Z,28.20
2017-06-11T17:14:19.306Z,27.90
2017-06-11T17:16:47.207Z,27.70
2017-06-11T17:19:14.782Z,27.50
2017-06-11T17:21:42.396Z,27.40
2017-06-11T17:24:09.957Z,27.30
2017-06-11T17:26:38.299Z,27.10
2017-06-11T17:29:06.010Z,27.10
2017-06-11T17:31:33.576Z,26.90
2017-06-11T17:34:01.158Z,26.90
2017-06-11T17:36:28.763Z,26.80
2017-06-11T17:38:56.338Z,26.60
2017-06-11T17:41:24.018Z,26.40
2017-06-11T17:43:52.237Z,26.20
2017-06-11T17:46:19.806Z,26.10
2017-06-11T17:48:47.413Z,26.10
2017-06-11T17:51:15.754Z,26.20
2017-06-11T17:53:43.315Z,26.20
2017-06-11T17:56:10.922Z,26.40
2017-06-11T17:58:38.489Z,26.30
2017-06-11T18:01:06.112Z,26.30
2017-06-11T18:03:33.759Z,26.40
2017-06-11T18:06:01.537Z,26.20
2017-06-11T18:08:29.106Z,26.00
2017-06-11T18:10:56.724Z,25.90
2017-06-11T18:13:24.286Z,25.70
2017-06-11T18:15:51.892Z,25.70
2017-06-11T18:18:19.478Z,25.60
2017-06-11T18:20:47.198Z,25.60
2017-06-11T18:23:14.779Z,25.60
2017-06-11T18:25:43.141Z,25.80
2017-06-11T18:28:10.726Z,25.80
2017-06-11T18:30:38.307Z,25.80
2017-06-11T18:33:05.891Z,25.70
2017-06-11T18:35:33.451Z,25.70
2017-06-11T18:38:01.939Z,25.60
2017-06-11T18:40:29.506Z,25.40
2017-06-11T18:42:57.099Z,25.30
2017-06-11T18:45:25.702Z,25.20
2017-06-11T18:47:53.271Z,25.10
2017-06-11T18:50:21.628Z,24.80
2017-06-11T18:52:49.236Z,24.80
2017-06-11T18:55:16.890Z,24.90
2017-06-11T18:57:44.499Z,24.80
2017-06-11T19:00:12.067Z,24.70
2017-06-11T19:02:39.631Z,24.70
2017-06-11T19:05:07.261Z,24.60
2017-06-11T19:07:35.546Z,24.50
2017-06-11T19:10:03.162Z,24.40
2017-06-11T19:12:31.518Z,24.50
2017-06-11T19:14:59.157Z,24.50
2017-06-11T19:17:26.779Z,24.40
2017-06-11T19:19:54.379Z,24.30
2017-06-11T19:22:21.967Z,24.20
2017-06-11T19:24:49.549Z,24.10
2017-06-11T19:27:17.915Z,24.10
2017-06-11T19:29:45.534Z,24.10
2017-06-11T19:32:13.113Z,24.00
2017-06-11T19:34:40.672Z,24.00
2017-06-11T19:37:08.277Z,23.90
2017-06-11T19:39:35.847Z,23.90
2017-06-11T19:42:03.430Z,23.90
2017-06-11T19:44:31.006Z,23.80
2017-06-11T19:46:58.590Z,23.80
2017-06-11T19:49:26.200Z,23.80
2017-06-11T19:51:54.609Z,23.90
2017-06-11T19:54:22.243Z,23.90
2017-06-11T19:56:49.837Z,23.80
2017-06-11T19:59:17.414Z,23.80
2017-06-11T20:01:45.019Z,23.80
2017-06-11T20:04:12.609Z,23.70
2017-06-11T20:06:40.181Z,23.70
2017-06-11T20:09:07.807Z,23.70
2017-06-11T20:11:35.374Z,23.60
2017-06-11T20:14:02.937Z,23.50
2017-06-11T20:16:30.637Z,23.50
2017-06-11T20:18:58.231Z,23.40
2017-06-11T20:21:25.824Z,23.10
2017-06-11T20:23:53.421Z,22.80
2017-06-11T20:26:21.000Z,22.50
2017-06-11T20:28:48.595Z,22.40
2017-06-11T20:31:16.193Z,22.30
2017-06-11T20:33:43.785Z,22.20
2017-06-11T20:36:11.373Z,22.20
2017-06-11T20:38:38.947Z,22.20
2017-06-11T20:41:06.599Z,22.20
2017-06-11T20:43:34.196Z,22.10
2017-06-11T20:46:01.758Z,22.10
2017-06-11T20:48:29.347Z,22.00
2017-06-11T20:50:56.918Z,21.90
2017-06-11T20:53:24.533Z,21.90
2017-06-11T20:55:52.094Z,21.90
2017-06-11T20:58:19.765Z,21.90
2017-06-11T21:00:47.358Z,21.90
2017-06-11T21:03:14.926Z,21.80
2017-06-11T21:05:43.281Z,21.80
2017-06-11T21:08:10.841Z,21.80
2017-06-11T21:10:38.423Z,21.80
2017-06-11T21:13:06.017Z,21.80
2017-06-11T21:15:33.573Z,21.80
2017-06-11T21:18:01.164Z,21.70
2017-06-11T21:20:28.785Z,21.70
2017-06-11T21:22:56.377Z,21.70
2017-06-11T21:25:24.017Z,21.70
2017-06-11T21:27:51.583Z,21.70
2017-06-11T21:30:19.157Z,21.80
2017-06-11T21:32:46.768Z,21.80
2017-06-11T21:35:14.339Z,21.80
2017-06-11T21:37:41.906Z,21.80
2017-06-11T21:40:09.650Z,21.80
2017-06-11T21:42:37.219Z,21.70
2017-06-11T21:45:04.785Z,21.70
2017-06-11T21:47:33.142Z,21.80
2017-06-11T21:50:00.707Z,21.70
2017-06-11T21:52:28.305Z,21.80
2017-06-11T21:54:55.878Z,21.80
2017-06-11T21:57:23.446Z,21.80
2017-06-11T21:59:51.024Z,21.80
2017-06-11T22:02:18.589Z,21.70
2017-06-11T22:04:46.146Z,21.60
2017-06-11T22:07:13.742Z,21.50
2017-06-11T22:09:41.329Z,21.60
2017-06-11T22:12:08.907Z,21.50
2017-06-11T22:14:36.465Z,21.50
2017-06-11T22:17:04.036Z,21.40
2017-06-11T22:19:31.617Z,21.40
2017-06-11T22:21:59.186Z,21.40
2017-06-11T22:24:26.793Z,21.30
2017-06-11T22:26:54.369Z,21.30
2017-06-11T22:29:21.965Z,21.20
2017-06-11T22:31:49.563Z,21.20
2017-06-11T22:34:17.122Z,21.20
2017-06-11T22:36:45.454Z,21.00
2017-06-11T22:39:13.043Z,21.00
2017-06-11T22:41:41.430Z,20.90
2017-06-11T22:44:09.031Z,20.90
2017-06-11T22:46:36.583Z,20.70
2017-06-11T22:49:04.171Z,20.60
2017-06-11T22:51:31.754Z,20.60
2017-06-11T22:53:59.393Z,20.50
2017-06-11T22:56:26.982Z,20.40
2017-06-11T22:58:54.549Z,20.40
2017-06-11T23:01:22.115Z,20.30
2017-06-11T23:03:49.692Z,20.30
2017-06-11T23:06:18.046Z,20.20
2017-06-11T23:08:45.600Z,20.20
2017-06-11T23:11:13.190Z,20.10
2017-06-11T23:13:40.742Z,20.10
2017-06-11T23:16:08.327Z,20.10
2017-06-11T23:18:35.898Z,20.00
2017-06-11T23:21:03.458Z,20.10
2017-06-11T23:23:31.030Z,20.10
2017-06-11T23:25:58.674Z,20.10
2017-06-11T23:28:26.221Z,20.10
2017-06-11T23:30:53.786Z,20.10
2017-06-11T23:33:22.145Z,20.20
2017-06-11T23:35:49.803Z,20.20
2017-06-11T23:38:17.365Z,20.10
2017-06-11T23:40:44.955Z,20.10
2017-06-11T23:43:12.518Z,20.10
2017-06-11T23:45:40.115Z,20.10
2017-06-11T23:48:07.676Z,20.10
2017-06-11T23:50:35.233Z,20.00
2017-06-11T23:53:02.805Z,20.00
2017-06-11T23:55:30.390Z,20.00
2017-06-11T23:57:58.031Z,19.90
